createdAt,value
2022-09-23T00:04:53.670Z,26.22
2022-09-23T00:09:58.851Z,26.11
2022-09-23T00:15:02.427Z,25.74
2022-09-23T00:20:06.767Z,25.88
2022-09-23T00:25:13.088Z,25.77
2022-09-23T00:30:16.614Z,25.78
2022-09-23T00:35:20.408Z,25.76
2022-09-23T00:40:25.660Z,25.66
2022-09-23T00:45:30.487Z,25.60
2022-09-23T00:50:34.868Z,25.56
2022-09-23T00:55:43.279Z,25.44
2022-09-23T01:00:46.943Z,25.35
2022-09-23T01:05:50.934Z,25.37
2022-09-23T01:11:05.329Z,25.30
2022-09-23T01:16:16.725Z,25.24
2022-09-23T01:21:31.223Z,25.05
2022-09-23T01:27:06.431Z,24.83
2022-09-23T01:32:18.874Z,24.54
2022-09-23T01:37:27.082Z,24.44
2022-09-23T01:42:36.975Z,24.43
2022-09-23T01:47:47.854Z,24.30
2022-09-23T01:52:56.129Z,24.13
2022-09-23T01:58:05.729Z,23.99
2022-09-23T02:03:16.225Z,24.00
2022-09-23T02:08:25.133Z,23.96
2022-09-23T02:13:32.582Z,23.91
2022-09-23T02:18:45.082Z,23.97
2022-09-23T02:23:53.140Z,23.83
2022-09-23T02:29:07.451Z,23.69
2022-09-23T02:34:33.555Z,23.63
2022-09-23T02:39:43.038Z,23.53
2022-09-23T02:44:46.646Z,23.34
2022-09-23T02:49:52.018Z,23.13
2022-09-23T02:54:55.638Z,23.12
2022-09-23T02:59:59.311Z,22.92
2022-09-23T03:05:12.286Z,23.01
2022-09-23T03:10:21.787Z,22.89
2022-09-23T03:15:34.180Z,22.98
2022-09-23T03:20:44.896Z,22.99
2022-09-23T03:25:51.030Z,22.78
2022-09-23T03:30:55.522Z,22.81
2022-09-23T03:36:05.355Z,22.68
2022-09-23T03:41:11.927Z,22.83
2022-09-23T03:46:15.523Z,23.01
2022-09-23T03:51:24.141Z,22.98
2022-09-23T03:56:27.678Z,22.94
2022-09-23T04:01:31.229Z,22.71
2022-09-23T04:06:36.585Z,22.52
2022-09-23T04:11:40.132Z,22.26
2022-09-23T04:16:43.692Z,22.05
2022-09-23T04:21:49.326Z,21.32
2022-09-23T04:26:53.845Z,21.10
2022-09-23T04:31:57.487Z,20.96
2022-09-23T04:37:03.070Z,20.74
2022-09-23T04:42:06.870Z,20.59
2022-09-23T04:47:10.409Z,20.37
2022-09-23T04:52:15.571Z,20.30
2022-09-23T04:57:19.110Z,19.99
2022-09-23T05:02:22.730Z,19.93
2022-09-23T05:07:28.579Z,19.90
2022-09-23T05:12:32.152Z,19.74
2022-09-23T05:17:35.697Z,19.77
2022-09-23T05:22:40.882Z,19.79
2022-09-23T05:27:44.425Z,19.62
2022-09-23T05:32:47.930Z,19.39
2022-09-23T05:37:53.075Z,19.34
2022-09-23T05:42:56.609Z,19.36
2022-09-23T05:48:00.152Z,19.32
2022-09-23T05:53:05.346Z,19.11
2022-09-23T05:58:08.874Z,18.99
2022-09-23T06:03:14.427Z,18.98
2022-09-23T06:08:19.766Z,18.87
2022-09-23T06:13:23.311Z,18.83
2022-09-23T06:18:26.841Z,18.78
2022-09-23T06:23:32.376Z,18.51
2022-09-23T06:28:38.039Z,18.57
2022-09-23T06:33:40.819Z,18.22
2022-09-23T06:38:46.008Z,18.28
2022-09-23T06:43:49.721Z,18.27
2022-09-23T06:48:53.222Z,18.00
2022-09-23T06:53:58.428Z,17.95
2022-09-23T06:59:01.990Z,17.99
2022-09-23T07:04:05.707Z,17.93
2022-09-23T07:09:11.741Z,17.87
2022-09-23T07:14:15.568Z,17.81
2022-09-23T07:19:19.103Z,17.81
2022-09-23T07:24:25.243Z,17.75
2022-09-23T07:29:31.247Z,17.77
2022-09-23T07:34:38.609Z,17.77
2022-09-23T07:39:44.563Z,17.61
2022-09-23T07:44:48.133Z,17.57
2022-09-23T07:49:51.705Z,17.52
2022-09-23T07:54:57.867Z,17.40
2022-09-23T08:00:01.438Z,17.36
2022-09-23T08:05:05.270Z,17.32
2022-09-23T08:10:10.986Z,17.27
2022-09-23T08:15:13.765Z,17.26
2022-09-23T08:20:18.181Z,17.26
2022-09-23T08:25:23.343Z,17.17
2022-09-23T08:30:27.657Z,17.16
2022-09-23T08:35:31.248Z,17.21
2022-09-23T08:40:39.771Z,17.10
2022-09-23T08:45:45.615Z,17.09
2022-09-23T08:50:54.205Z,16.99
2022-09-23T08:56:01.922Z,17.00
2022-09-23T09:01:17.322Z,17.03
2022-09-23T09:06:27.015Z,16.99
2022-09-23T09:11:36.662Z,16.91
2022-09-23T09:17:00.066Z,16.85
2022-09-23T09:22:08.391Z,16.68
2022-09-23T09:27:14.561Z,16.70
2022-09-23T09:32:26.558Z,16.79
2022-09-23T09:37:35.296Z,16.61
2022-09-23T09:42:41.851Z,16.47
2022-09-23T09:47:52.364Z,16.34
2022-09-23T09:53:17.211Z,16.39
2022-09-23T09:58:22.628Z,16.40
2022-09-23T10:03:40.102Z,16.44
2022-09-23T10:08:49.981Z,16.40
2022-09-23T10:14:06.529Z,16.35
2022-09-23T10:19:18.133Z,16.14
2022-09-23T10:24:24.127Z,15.99
2022-09-23T10:29:33.808Z,15.82
2022-09-23T10:34:37.323Z,15.93
2022-09-23T10:39:41.599Z,16.06
2022-09-23T10:45:02.325Z,16.04
2022-09-23T10:50:36.329Z,16.00
2022-09-23T10:56:05.367Z,15.89
2022-09-23T11:01:27.956Z,15.94
2022-09-23T11:06:38.296Z,15.89
2022-09-23T11:11:52.956Z,15.71
2022-09-23T11:17:27.982Z,15.67
2022-09-23T11:22:50.479Z,15.44
2022-09-23T11:28:18.653Z,15.46
2022-09-23T11:33:42.450Z,15.52
2022-09-23T11:38:50.395Z,15.56
2022-09-23T11:44:00.123Z,15.41
2022-09-23T11:49:13.079Z,15.27
2022-09-23T11:54:21.461Z,15.27
2022-09-23T11:59:40.001Z,15.36
2022-09-23T12:04:57.214Z,15.33
2022-09-23T12:10:06.134Z,15.39
2022-09-23T12:15:18.346Z,15.48
2022-09-23T12:20:51.229Z,15.41
2022-09-23T12:25:56.798Z,15.32
2022-09-23T12:31:02.833Z,14.91
2022-09-23T12:36:10.566Z,14.93
2022-09-23T12:41:24.968Z,15.15
2022-09-23T12:46:28.931Z,15.16
2022-09-23T12:51:34.863Z,15.08
2022-09-23T12:57:01.468Z,14.94
2022-09-23T13:02:29.508Z,14.89
2022-09-23T13:07:34.972Z,14.82
2022-09-23T13:12:43.438Z,14.94
2022-09-23T13:17:47.028Z,14.96
2022-09-23T13:23:22.493Z,15.04
2022-09-23T13:28:34.003Z,15.05
2022-09-23T13:33:43.562Z,14.93
2022-09-23T13:38:48.760Z,14.85
2022-09-23T13:43:55.398Z,14.83
2022-09-23T13:48:59.438Z,15.09
2022-09-23T13:54:05.910Z,15.24
2022-09-23T13:59:23.465Z,15.38
2022-09-23T14:04:27.462Z,15.50
2022-09-23T14:09:34.578Z,15.37
2022-09-23T14:14:41.507Z,15.63
2022-09-23T14:19:45.346Z,15.23
2022-09-23T14:24:51.119Z,15.21
2022-09-23T14:29:55.088Z,15.55
2022-09-23T14:35:18.597Z,15.56
2022-09-23T14:40:26.617Z,15.56
2022-09-23T14:45:34.539Z,15.92
2022-09-23T14:50:38.462Z,16.29
2022-09-23T14:55:44.784Z,16.50
2022-09-23T15:00:54.110Z,16.74
2022-09-23T15:06:01.615Z,17.09
2022-09-23T15:11:09.574Z,17.57
2022-09-23T15:16:15.238Z,18.07
2022-09-23T15:21:20.823Z,18.52
2022-09-23T15:26:40.467Z,19.02
2022-09-23T15:31:44.050Z,19.54
2022-09-23T15:36:47.979Z,19.90
2022-09-23T15:41:53.421Z,20.32
2022-09-23T15:46:58.559Z,20.79
2022-09-23T15:52:04.085Z,21.21
2022-09-23T15:57:09.488Z,21.61
2022-09-23T16:02:20.607Z,22.12
2022-09-23T16:07:24.139Z,22.56
2022-09-23T16:12:29.339Z,22.90
2022-09-23T16:17:32.860Z,23.02
2022-09-23T16:22:36.752Z,23.37
2022-09-23T16:27:41.951Z,23.42
2022-09-23T16:32:51.760Z,23.86
2022-09-23T16:37:55.488Z,23.93
2022-09-23T16:43:00.660Z,24.33
2022-09-23T16:48:03.557Z,24.55
2022-09-23T16:53:07.169Z,24.66
2022-09-23T16:58:12.521Z,25.04
2022-09-23T17:03:16.076Z,25.32
2022-09-23T17:08:19.761Z,25.33
2022-09-23T17:13:25.026Z,25.63
2022-09-23T17:18:28.787Z,25.70
2022-09-23T17:23:33.286Z,26.03
2022-09-23T17:28:38.478Z,26.10
2022-09-23T17:33:42.010Z,25.96
2022-09-23T17:38:46.190Z,25.88
2022-09-23T17:43:55.344Z,26.09
2022-09-23T17:48:59.262Z,26.28
2022-09-23T17:54:02.807Z,26.40
2022-09-23T17:59:10.695Z,26.58
2022-09-23T18:04:14.322Z,26.77
2022-09-23T18:09:18.220Z,26.75
2022-09-23T18:14:23.964Z,27.08
2022-09-23T18:19:27.529Z,27.38
2022-09-23T18:24:33.091Z,27.38
2022-09-23T18:29:38.874Z,27.62
2022-09-23T18:34:42.428Z,27.63
2022-09-23T18:39:45.977Z,27.65
2022-09-23T18:44:51.206Z,27.83
2022-09-23T18:49:54.733Z,28.23
2022-09-23T18:54:58.259Z,28.40
2022-09-23T19:00:03.989Z,28.44
2022-09-23T19:05:08.482Z,28.56
2022-09-23T19:10:11.352Z,28.65
2022-09-23T19:15:16.653Z,28.74
2022-09-23T19:20:20.156Z,29.13
2022-09-23T19:25:23.684Z,29.33
2022-09-23T19:30:28.865Z,29.51
2022-09-23T19:35:32.436Z,29.71
2022-09-23T19:40:36.477Z,29.85
2022-09-23T19:45:41.772Z,29.97
2022-09-23T19:50:47.927Z,30.02
2022-09-23T19:55:51.450Z,30.02
2022-09-23T20:00:56.672Z,30.03
2022-09-23T20:06:00.275Z,30.08
2022-09-23T20:11:08.462Z,30.31
2022-09-23T20:16:15.780Z,30.48
2022-09-23T20:21:19.502Z,30.53
2022-09-23T20:26:23.087Z,30.51
2022-09-23T20:31:28.977Z,30.88
2022-09-23T20:36:32.607Z,30.80
2022-09-23T20:41:37.766Z,30.92
2022-09-23T20:46:47.935Z,30.96
2022-09-23T20:51:52.281Z,30.93
2022-09-23T20:56:55.806Z,31.01
2022-09-23T21:02:03.213Z,30.98
2022-09-23T21:07:06.791Z,30.96
2022-09-23T21:12:10.305Z,30.94
2022-09-23T21:17:15.470Z,30.97
2022-09-23T21:22:19.010Z,30.82
2022-09-23T21:27:22.516Z,31.01
2022-09-23T21:32:27.691Z,31.08
2022-09-23T21:37:31.227Z,31.22
2022-09-23T21:42:34.742Z,31.30
2022-09-23T21:47:40.876Z,31.18
2022-09-23T21:52:44.492Z,31.10
2022-09-23T21:57:48.040Z,30.99
2022-09-23T22:02:53.211Z,31.04
2022-09-23T22:07:56.758Z,31.10
2022-09-23T22:13:00.300Z,30.96
2022-09-23T22:18:05.652Z,31.01
2022-09-23T22:23:09.154Z,31.17
2022-09-23T22:28:12.694Z,31.13
2022-09-23T22:33:19.242Z,30.90
2022-09-23T22:38:22.767Z,31.00
2022-09-23T22:43:26.336Z,30.97
2022-09-23T22:48:31.831Z,30.84
2022-09-23T22:53:35.349Z,30.97
2022-09-23T22:58:38.865Z,31.11
2022-09-23T23:03:44.049Z,31.10
2022-09-23T23:08:47.613Z,31.07
2022-09-23T23:13:51.463Z,30.96
2022-09-23T23:18:56.708Z,30.87
2022-09-23T23:24:00.698Z,30.76
2022-09-23T23:29:03.516Z,30.70
2022-09-23T23:34:11.601Z,30.62
2022-09-23T23:39:15.514Z,30.53
2022-09-23T23:44:19.033Z,30.51
2022-09-23T23:49:24.218Z,30.46
2022-09-23T23:54:27.887Z,30.46
2022-09-23T23:59:31.459Z,30.42
